sensor_id;sensor_type;location;lat;lon;timestamp;P1;durP1;ratioP1;P2;durP2;ratioP2
1024;SDS011;501;48.214;11.350;2023-05-29T00:00:26;13.10;;;7.07;;
1024;SDS011;501;48.214;11.350;2023-05-29T00:02:52;9.00;;;6.67;;
1024;SDS011;501;48.214;11.350;2023-05-29T00:05:18;11.10;;;7.77;;
1024;SDS011;501;48.214;11.350;2023-05-29T00:07:43;9.87;;;6.77;;
1024;SDS011;501;48.214;11.350;2023-05-29T00:10:09;9.10;;;7.27;;
1024;SDS011;501;48.214;11.350;2023-05-29T00:12:37;11.03;;;7.17;;
1024;SDS011;501;48.214;11.350;2023-05-29T00:15:03;12.00;;;7.80;;
1024;SDS011;501;48.214;11.350;2023-05-29T00:17:29;8.37;;;6.87;;
1024;SDS011;501;48.214;11.350;2023-05-29T00:19:58;11.30;;;7.73;;
1024;SDS011;501;48.214;11.350;2023-05-29T00:22:26;11.07;;;7.40;;
1024;SDS011;501;48.214;11.350;2023-05-29T00:24:52;11.60;;;7.40;;
1024;SDS011;501;48.214;11.350;2023-05-29T00:27:18;12.10;;;7.53;;
1024;SDS011;501;48.214;11.350;2023-05-29T00:29:43;9.37;;;6.90;;
1024;SDS011;501;48.214;11.350;2023-05-29T00:32:10;11.57;;;7.30;;
1024;SDS011;501;48.214;11.350;2023-05-29T00:34:35;10.03;;;7.17;;
1024;SDS011;501;48.214;11.350;2023-05-29T00:37:01;11.73;;;7.53;;
1024;SDS011;501;48.214;11.350;2023-05-29T00:39:27;8.83;;;6.80;;
1024;SDS011;501;48.214;11.350;2023-05-29T00:41:53;14.27;;;6.93;;
1024;SDS011;501;48.214;11.350;2023-05-29T00:44:22;10.10;;;7.80;;
1024;SDS011;501;48.214;11.350;2023-05-29T00:46:48;9.83;;;7.53;;
1024;SDS011;501;48.214;11.350;2023-05-29T00:49:15;10.40;;;7.17;;
1024;SDS011;501;48.214;11.350;2023-05-29T00:51:41;10.97;;;7.60;;
1024;SDS011;501;48.214;11.350;2023-05-29T00:54:08;11.73;;;7.10;;
1024;SDS011;501;48.214;11.350;2023-05-29T00:56:38;8.77;;;7.30;;
1024;SDS011;501;48.214;11.350;2023-05-29T00:59:04;11.20;;;7.00;;
1024;SDS011;501;48.214;11.350;2023-05-29T01:01:30;16.70;;;7.87;;
1024;SDS011;501;48.214;11.350;2023-05-29T01:03:57;11.70;;;8.17;;
1024;SDS011;501;48.214;11.350;2023-05-29T01:06:25;9.43;;;6.87;;
1024;SDS011;501;48.214;11.350;2023-05-29T01:08:51;11.33;;;7.20;;
1024;SDS011;501;48.214;11.350;2023-05-29T01:13:56;9.13;;;7.00;;
1024;SDS011;501;48.214;11.350;2023-05-29T01:16:31;10.90;;;7.70;;
1024;SDS011;501;48.214;11.350;2023-05-29T01:19:26;11.87;;;7.40;;
1024;SDS011;501;48.214;11.350;2023-05-29T01:22:11;11.23;;;6.50;;
1024;SDS011;501;48.214;11.350;2023-05-29T01:27:14;10.47;;;6.90;;
1024;SDS011;501;48.214;11.350;2023-05-29T01:29:42;11.97;;;7.50;;
1024;SDS011;501;48.214;11.350;2023-05-29T01:32:09;10.10;;;6.90;;
1024;SDS011;501;48.214;11.350;2023-05-29T01:34:36;12.30;;;7.07;;
1024;SDS011;501;48.214;11.350;2023-05-29T01:37:02;10.20;;;7.20;;
1024;SDS011;501;48.214;11.350;2023-05-29T01:39:27;12.77;;;8.07;;
1024;SDS011;501;48.214;11.350;2023-05-29T01:41:54;11.87;;;7.23;;
1024;SDS011;501;48.214;11.350;2023-05-29T01:44:20;8.50;;;6.50;;
1024;SDS011;501;48.214;11.350;2023-05-29T01:46:47;9.00;;;6.67;;
1024;SDS011;501;48.214;11.350;2023-05-29T01:49:13;10.30;;;6.90;;
1024;SDS011;501;48.214;11.350;2023-05-29T01:51:40;11.27;;;7.47;;
1024;SDS011;501;48.214;11.350;2023-05-29T01:54:06;10.77;;;7.10;;
1024;SDS011;501;48.214;11.350;2023-05-29T01:56:33;9.73;;;6.47;;
1024;SDS011;501;48.214;11.350;2023-05-29T01:58:59;11.30;;;7.90;;
1024;SDS011;501;48.214;11.350;2023-05-29T02:01:27;9.67;;;7.37;;
1024;SDS011;501;48.214;11.350;2023-05-29T02:03:52;10.53;;;6.97;;
1024;SDS011;501;48.214;11.350;2023-05-29T02:06:18;8.10;;;6.57;;
1024;SDS011;501;48.214;11.350;2023-05-29T02:08:44;10.70;;;6.47;;
1024;SDS011;501;48.214;11.350;2023-05-29T02:11:09;9.90;;;6.70;;
1024;SDS011;501;48.214;11.350;2023-05-29T02:13:35;10.50;;;7.47;;
1024;SDS011;501;48.214;11.350;2023-05-29T02:16:02;9.87;;;7.23;;
1024;SDS011;501;48.214;11.350;2023-05-29T02:18:27;8.40;;;6.30;;
1024;SDS011;501;48.214;11.350;2023-05-29T02:20:53;8.80;;;7.10;;
1024;SDS011;501;48.214;11.350;2023-05-29T02:23:19;9.17;;;6.80;;
1024;SDS011;501;48.214;11.350;2023-05-29T02:25:45;11.07;;;7.40;;
1024;SDS011;501;48.214;11.350;2023-05-29T02:28:11;10.70;;;7.10;;
1024;SDS011;501;48.214;11.350;2023-05-29T02:30:36;8.80;;;7.17;;
1024;SDS011;501;48.214;11.350;2023-05-29T02:33:02;8.70;;;6.50;;
1024;SDS011;501;48.214;11.350;2023-05-29T02:35:28;10.83;;;6.53;;
1024;SDS011;501;48.214;11.350;2023-05-29T02:37:57;10.73;;;7.17;;
1024;SDS011;501;48.214;11.350;2023-05-29T02:40:22;11.83;;;7.27;;
1024;SDS011;501;48.214;11.350;2023-05-29T02:42:49;9.67;;;7.23;;
1024;SDS011;501;48.214;11.350;2023-05-29T02:45:15;8.60;;;6.53;;
1024;SDS011;501;48.214;11.350;2023-05-29T02:47:41;13.07;;;7.27;;
1024;SDS011;501;48.214;11.350;2023-05-29T02:50:07;8.23;;;6.80;;
1024;SDS011;501;48.214;11.350;2023-05-29T02:52:33;8.90;;;7.13;;
1024;SDS011;501;48.214;11.350;2023-05-29T02:54:59;8.60;;;6.43;;
1024;SDS011;501;48.214;11.350;2023-05-29T02:57:25;8.80;;;6.37;;
1024;SDS011;501;48.214;11.350;2023-05-29T02:59:51;11.20;;;6.53;;
1024;SDS011;501;48.214;11.350;2023-05-29T03:02:17;9.77;;;6.20;;
1024;SDS011;501;48.214;11.350;2023-05-29T03:04:44;11.33;;;7.07;;
1024;SDS011;501;48.214;11.350;2023-05-29T03:07:16;11.60;;;7.20;;
1024;SDS011;501;48.214;11.350;2023-05-29T03:09:41;8.57;;;7.07;;
1024;SDS011;501;48.214;11.350;2023-05-29T03:12:07;10.27;;;6.70;;
1024;SDS011;501;48.214;11.350;2023-05-29T03:14:33;13.13;;;6.93;;
1024;SDS011;501;48.214;11.350;2023-05-29T03:17:01;9.10;;;6.40;;
1024;SDS011;501;48.214;11.350;2023-05-29T03:19:29;8.57;;;6.97;;
1024;SDS011;501;48.214;11.350;2023-05-29T03:21:54;10.90;;;6.87;;
1024;SDS011;501;48.214;11.350;2023-05-29T03:24:20;8.93;;;7.03;;
1024;SDS011;501;48.214;11.350;2023-05-29T03:26:46;8.43;;;7.30;;
1024;SDS011;501;48.214;11.350;2023-05-29T03:29:11;8.73;;;6.30;;
1024;SDS011;501;48.214;11.350;2023-05-29T03:31:37;11.87;;;6.83;;
1024;SDS011;501;48.214;11.350;2023-05-29T03:34:03;10.30;;;7.57;;
1024;SDS011;501;48.214;11.350;2023-05-29T03:36:28;10.23;;;7.77;;
1024;SDS011;501;48.214;11.350;2023-05-29T03:38:54;14.03;;;7.80;;
1024;SDS011;501;48.214;11.350;2023-05-29T03:41:20;11.07;;;7.10;;
1024;SDS011;501;48.214;11.350;2023-05-29T03:43:45;12.47;;;8.33;;
1024;SDS011;501;48.214;11.350;2023-05-29T03:46:11;9.93;;;7.67;;
1024;SDS011;501;48.214;11.350;2023-05-29T03:48:37;9.50;;;7.23;;
1024;SDS011;501;48.214;11.350;2023-05-29T03:51:03;7.70;;;6.50;;
1024;SDS011;501;48.214;11.350;2023-05-29T03:53:30;10.63;;;7.10;;
1024;SDS011;501;48.214;11.350;2023-05-29T03:55:55;9.13;;;7.83;;
1024;SDS011;501;48.214;11.350;2023-05-29T03:58:21;9.60;;;7.43;;
1024;SDS011;501;48.214;11.350;2023-05-29T04:00:47;11.60;;;7.40;;
1024;SDS011;501;48.214;11.350;2023-05-29T04:03:12;8.10;;;6.80;;
1024;SDS011;501;48.214;11.350;2023-05-29T04:05:38;9.97;;;6.23;;
1024;SDS011;501;48.214;11.350;2023-05-29T04:08:04;10.77;;;7.20;;
1024;SDS011;501;48.214;11.350;2023-05-29T04:10:30;8.30;;;7.07;;
1024;SDS011;501;48.214;11.350;2023-05-29T04:12:59;8.23;;;6.00;;
1024;SDS011;501;48.214;11.350;2023-05-29T04:15:25;13.73;;;7.70;;
1024;SDS011;501;48.214;11.350;2023-05-29T04:17:51;7.43;;;6.57;;
1024;SDS011;501;48.214;11.350;2023-05-29T04:20:17;10.57;;;6.30;;
1024;SDS011;501;48.214;11.350;2023-05-29T04:22:43;10.10;;;6.67;;
1024;SDS011;501;48.214;11.350;2023-05-29T04:25:08;11.87;;;6.90;;
1024;SDS011;501;48.214;11.350;2023-05-29T04:27:34;11.00;;;6.73;;
1024;SDS011;501;48.214;11.350;2023-05-29T04:30:05;8.57;;;6.80;;
1024;SDS011;501;48.214;11.350;2023-05-29T04:32:32;9.73;;;6.83;;
1024;SDS011;501;48.214;11.350;2023-05-29T04:35:01;9.60;;;7.40;;
1024;SDS011;501;48.214;11.350;2023-05-29T04:37:30;12.10;;;6.70;;
1024;SDS011;501;48.214;11.350;2023-05-29T04:40:02;10.00;;;6.27;;
1024;SDS011;501;48.214;11.350;2023-05-29T04:42:32;10.30;;;6.83;;
1024;SDS011;501;48.214;11.350;2023-05-29T04:44:58;12.07;;;7.20;;
1024;SDS011;501;48.214;11.350;2023-05-29T04:47:25;10.57;;;6.30;;
1024;SDS011;501;48.214;11.350;2023-05-29T04:49:51;10.27;;;6.97;;
1024;SDS011;501;48.214;11.350;2023-05-29T04:52:17;11.30;;;7.40;;
1024;SDS011;501;48.214;11.350;2023-05-29T04:54:42;10.53;;;7.37;;
1024;SDS011;501;48.214;11.350;2023-05-29T04:57:08;11.23;;;8.03;;
1024;SDS011;501;48.214;11.350;2023-05-29T04:59:34;8.47;;;6.83;;
1024;SDS011;501;48.214;11.350;2023-05-29T05:02:00;11.17;;;8.07;;
1024;SDS011;501;48.214;11.350;2023-05-29T05:04:26;12.40;;;8.03;;
1024;SDS011;501;48.214;11.350;2023-05-29T05:06:54;9.90;;;7.00;;
1024;SDS011;501;48.214;11.350;2023-05-29T05:09:19;11.10;;;7.40;;
1024;SDS011;501;48.214;11.350;2023-05-29T05:11:45;12.07;;;8.00;;
1024;SDS011;501;48.214;11.350;2023-05-29T05:14:10;8.17;;;7.07;;
1024;SDS011;501;48.214;11.350;2023-05-29T05:16:36;9.57;;;7.10;;
1024;SDS011;501;48.214;11.350;2023-05-29T05:19:01;11.97;;;7.50;;
1024;SDS011;501;48.214;11.350;2023-05-29T05:21:27;12.80;;;7.80;;
1024;SDS011;501;48.214;11.350;2023-05-29T05:23:55;11.30;;;7.27;;
1024;SDS011;501;48.214;11.350;2023-05-29T05:26:21;11.27;;;6.70;;
1024;SDS011;501;48.214;11.350;2023-05-29T05:28:47;7.20;;;6.37;;
1024;SDS011;501;48.214;11.350;2023-05-29T05:31:12;9.17;;;6.70;;
1024;SDS011;501;48.214;11.350;2023-05-29T05:33:38;8.97;;;6.43;;
1024;SDS011;501;48.214;11.350;2023-05-29T05:36:03;9.50;;;6.10;;
1024;SDS011;501;48.214;11.350;2023-05-29T05:38:30;11.00;;;7.17;;
1024;SDS011;501;48.214;11.350;2023-05-29T05:40:55;11.43;;;7.33;;
1024;SDS011;501;48.214;11.350;2023-05-29T05:43:21;10.50;;;7.47;;
1024;SDS011;501;48.214;11.350;2023-05-29T05:45:47;9.73;;;6.47;;
1024;SDS011;501;48.214;11.350;2023-05-29T05:48:12;9.00;;;7.33;;
1024;SDS011;501;48.214;11.350;2023-05-29T05:50:38;10.63;;;6.97;;
1024;SDS011;501;48.214;11.350;2023-05-29T05:53:04;10.03;;;7.40;;
1024;SDS011;501;48.214;11.350;2023-05-29T05:55:29;10.50;;;7.53;;
1024;SDS011;501;48.214;11.350;2023-05-29T05:57:55;10.03;;;6.60;;
1024;SDS011;501;48.214;11.350;2023-05-29T06:00:22;10.80;;;7.87;;
1024;SDS011;501;48.214;11.350;2023-05-29T06:02:48;10.40;;;6.97;;
1024;SDS011;501;48.214;11.350;2023-05-29T06:05:14;10.80;;;8.47;;
1024;SDS011;501;48.214;11.350;2023-05-29T06:07:40;10.20;;;7.33;;
1024;SDS011;501;48.214;11.350;2023-05-29T06:10:06;9.17;;;6.60;;
1024;SDS011;501;48.214;11.350;2023-05-29T06:12:32;11.00;;;7.53;;
1024;SDS011;501;48.214;11.350;2023-05-29T06:14:59;9.40;;;7.20;;
1024;SDS011;501;48.214;11.350;2023-05-29T06:17:24;9.10;;;6.90;;
1024;SDS011;501;48.214;11.350;2023-05-29T06:19:50;9.13;;;6.60;;
1024;SDS011;501;48.214;11.350;2023-05-29T06:22:16;11.10;;;7.40;;
1024;SDS011;501;48.214;11.350;2023-05-29T06:24:43;12.60;;;7.70;;
1024;SDS011;501;48.214;11.350;2023-05-29T06:27:09;11.97;;;7.10;;
1024;SDS011;501;48.214;11.350;2023-05-29T06:29:34;12.33;;;7.30;;
1024;SDS011;501;48.214;11.350;2023-05-29T06:32:00;9.07;;;6.80;;
1024;SDS011;501;48.214;11.350;2023-05-29T06:34:26;11.17;;;7.73;;
1024;SDS011;501;48.214;11.350;2023-05-29T06:36:52;9.63;;;7.20;;
1024;SDS011;501;48.214;11.350;2023-05-29T06:39:17;8.90;;;6.90;;
1024;SDS011;501;48.214;11.350;2023-05-29T06:41:45;10.73;;;7.17;;
1024;SDS011;501;48.214;11.350;2023-05-29T06:44:10;7.90;;;6.50;;
1024;SDS011;501;48.214;11.350;2023-05-29T06:46:36;16.13;;;7.90;;
1024;SDS011;501;48.214;11.350;2023-05-29T06:49:01;10.40;;;6.63;;
1024;SDS011;501;48.214;11.350;2023-05-29T06:51:27;10.30;;;6.73;;
1024;SDS011;501;48.214;11.350;2023-05-29T06:53:53;10.73;;;6.40;;
1024;SDS011;501;48.214;11.350;2023-05-29T06:56:18;9.50;;;7.10;;
1024;SDS011;501;48.214;11.350;2023-05-29T06:58:45;11.77;;;7.43;;
1024;SDS011;501;48.214;11.350;2023-05-29T07:01:11;8.77;;;6.80;;
1024;SDS011;501;48.214;11.350;2023-05-29T07:03:37;9.37;;;6.73;;
1024;SDS011;501;48.214;11.350;2023-05-29T07:06:03;11.00;;;6.47;;
1024;SDS011;501;48.214;11.350;2023-05-29T07:08:29;7.30;;;6.40;;
1024;SDS011;501;48.214;11.350;2023-05-29T07:10:54;7.40;;;6.33;;
1024;SDS011;501;48.214;11.350;2023-05-29T07:13:20;8.03;;;6.40;;
1024;SDS011;501;48.214;11.350;2023-05-29T07:15:47;7.70;;;6.97;;
1024;SDS011;501;48.214;11.350;2023-05-29T07:18:13;8.80;;;6.63;;
1024;SDS011;501;48.214;11.350;2023-05-29T07:20:39;9.43;;;5.93;;
1024;SDS011;501;48.214;11.350;2023-05-29T07:23:05;9.90;;;6.37;;
1024;SDS011;501;48.214;11.350;2023-05-29T07:25:31;8.73;;;6.03;;
1024;SDS011;501;48.214;11.350;2023-05-29T07:27:57;6.40;;;5.70;;
1024;SDS011;501;48.214;11.350;2023-05-29T07:30:22;8.03;;;5.97;;
1024;SDS011;501;48.214;11.350;2023-05-29T07:32:48;8.43;;;5.90;;
1024;SDS011;501;48.214;11.350;2023-05-29T07:35:14;9.03;;;6.67;;
1024;SDS011;501;48.214;11.350;2023-05-29T07:37:40;9.17;;;6.03;;
1024;SDS011;501;48.214;11.350;2023-05-29T07:40:06;8.00;;;5.70;;
1024;SDS011;501;48.214;11.350;2023-05-29T07:42:32;8.13;;;6.00;;
1024;SDS011;501;48.214;11.350;2023-05-29T07:44:58;7.50;;;6.07;;
1024;SDS011;501;48.214;11.350;2023-05-29T07:47:24;7.93;;;5.47;;
1024;SDS011;501;48.214;11.350;2023-05-29T07:49:50;10.47;;;6.00;;
1024;SDS011;501;48.214;11.350;2023-05-29T07:52:17;6.93;;;5.60;;
1024;SDS011;501;48.214;11.350;2023-05-29T07:54:42;8.90;;;5.50;;
1024;SDS011;501;48.214;11.350;2023-05-29T07:57:08;7.50;;;5.77;;
1024;SDS011;501;48.214;11.350;2023-05-29T07:59:37;7.10;;;5.90;;
1024;SDS011;501;48.214;11.350;2023-05-29T08:02:03;11.20;;;5.50;;
1024;SDS011;501;48.214;11.350;2023-05-29T08:04:29;8.97;;;5.37;;
1024;SDS011;501;48.214;11.350;2023-05-29T08:06:55;9.57;;;4.90;;
1024;SDS011;501;48.214;11.350;2023-05-29T08:09:21;9.97;;;6.13;;
1024;SDS011;501;48.214;11.350;2023-05-29T08:11:46;9.23;;;5.33;;
1024;SDS011;501;48.214;11.350;2023-05-29T08:14:13;9.17;;;6.00;;
1024;SDS011;501;48.214;11.350;2023-05-29T08:16:40;8.07;;;5.60;;
1024;SDS011;501;48.214;11.350;2023-05-29T08:19:05;9.20;;;5.23;;
1024;SDS011;501;48.214;11.350;2023-05-29T08:21:31;7.30;;;4.63;;
1024;SDS011;501;48.214;11.350;2023-05-29T08:23:57;11.10;;;5.53;;
1024;SDS011;501;48.214;11.350;2023-05-29T08:26:23;8.30;;;6.03;;
1024;SDS011;501;48.214;11.350;2023-05-29T08:28:49;8.23;;;4.80;;
1024;SDS011;501;48.214;11.350;2023-05-29T08:31:15;9.23;;;5.50;;
1024;SDS011;501;48.214;11.350;2023-05-29T08:33:41;8.73;;;5.27;;
1024;SDS011;501;48.214;11.350;2023-05-29T08:36:07;5.33;;;4.83;;
1024;SDS011;501;48.214;11.350;2023-05-29T08:38:33;10.00;;;6.37;;
1024;SDS011;501;48.214;11.350;2023-05-29T08:41:00;8.23;;;5.13;;
1024;SDS011;501;48.214;11.350;2023-05-29T08:43:30;7.60;;;5.07;;
1024;SDS011;501;48.214;11.350;2023-05-29T08:45:59;7.60;;;5.30;;
1024;SDS011;501;48.214;11.350;2023-05-29T08:48:26;9.70;;;5.60;;
1024;SDS011;501;48.214;11.350;2023-05-29T08:50:55;7.77;;;5.60;;
1024;SDS011;501;48.214;11.350;2023-05-29T08:53:22;12.83;;;5.50;;
1024;SDS011;501;48.214;11.350;2023-05-29T08:55:49;7.67;;;5.20;;
1024;SDS011;501;48.214;11.350;2023-05-29T08:58:18;7.60;;;5.33;;
1024;SDS011;501;48.214;11.350;2023-05-29T09:00:46;7.23;;;5.13;;
1024;SDS011;501;48.214;11.350;2023-05-29T09:03:12;7.30;;;5.50;;
1024;SDS011;501;48.214;11.350;2023-05-29T09:05:41;7.00;;;5.00;;
1024;SDS011;501;48.214;11.350;2023-05-29T09:08:10;8.80;;;5.47;;
1024;SDS011;501;48.214;11.350;2023-05-29T09:10:43;6.87;;;4.80;;
1024;SDS011;501;48.214;11.350;2023-05-29T09:13:10;8.93;;;5.20;;
1024;SDS011;501;48.214;11.350;2023-05-29T09:15:38;6.40;;;4.50;;
1024;SDS011;501;48.214;11.350;2023-05-29T09:18:05;8.03;;;5.10;;
1024;SDS011;501;48.214;11.350;2023-05-29T09:20:32;10.17;;;6.03;;
1024;SDS011;501;48.214;11.350;2023-05-29T09:22:59;8.07;;;5.73;;
1024;SDS011;501;48.214;11.350;2023-05-29T09:25:29;7.60;;;5.07;;
1024;SDS011;501;48.214;11.350;2023-05-29T09:33:09;12.23;;;6.87;;
1024;SDS011;501;48.214;11.350;2023-05-29T09:35:37;7.23;;;5.03;;
1024;SDS011;501;48.214;11.350;2023-05-29T09:38:10;7.13;;;5.70;;
1024;SDS011;501;48.214;11.350;2023-05-29T09:40:40;7.77;;;5.17;;
1024;SDS011;501;48.214;11.350;2023-05-29T09:43:10;7.07;;;5.30;;
1024;SDS011;501;48.214;11.350;2023-05-29T09:45:39;8.47;;;4.60;;
1024;SDS011;501;48.214;11.350;2023-05-29T09:48:17;8.13;;;5.23;;
1024;SDS011;501;48.214;11.350;2023-05-29T09:50:49;6.50;;;4.80;;
1024;SDS011;501;48.214;11.350;2023-05-29T09:53:18;5.93;;;4.40;;
1024;SDS011;501;48.214;11.350;2023-05-29T09:55:52;5.63;;;3.70;;
1024;SDS011;501;48.214;11.350;2023-05-29T09:58:20;6.03;;;4.50;;
1024;SDS011;501;48.214;11.350;2023-05-29T10:00:46;6.73;;;4.70;;
1024;SDS011;501;48.214;11.350;2023-05-29T10:03:13;11.50;;;5.00;;
1024;SDS011;501;48.214;11.350;2023-05-29T10:05:49;7.83;;;5.03;;
1024;SDS011;501;48.214;11.350;2023-05-29T10:08:17;10.10;;;4.30;;
1024;SDS011;501;48.214;11.350;2023-05-29T10:10:56;5.67;;;4.60;;
1024;SDS011;501;48.214;11.350;2023-05-29T10:13:27;7.50;;;4.30;;
1024;SDS011;501;48.214;11.350;2023-05-29T10:15:56;6.10;;;4.77;;
1024;SDS011;501;48.214;11.350;2023-05-29T10:18:25;5.50;;;4.40;;
1024;SDS011;501;48.214;11.350;2023-05-29T10:20:56;5.63;;;4.03;;
1024;SDS011;501;48.214;11.350;2023-05-29T10:23:24;8.03;;;5.90;;
1024;SDS011;501;48.214;11.350;2023-05-29T10:25:54;9.30;;;5.10;;
1024;SDS011;501;48.214;11.350;2023-05-29T10:28:26;6.30;;;4.73;;
1024;SDS011;501;48.214;11.350;2023-05-29T10:30:53;5.30;;;4.80;;
1024;SDS011;501;48.214;11.350;2023-05-29T10:36:19;4.93;;;4.27;;
1024;SDS011;501;48.214;11.350;2023-05-29T10:38:48;7.73;;;5.17;;
1024;SDS011;501;48.214;11.350;2023-05-29T10:43:53;9.17;;;4.93;;
1024;SDS011;501;48.214;11.350;2023-05-29T10:46:19;7.33;;;4.00;;
1024;SDS011;501;48.214;11.350;2023-05-29T10:48:44;6.93;;;4.40;;
1024;SDS011;501;48.214;11.350;2023-05-29T10:51:26;5.93;;;4.00;;
1024;SDS011;501;48.214;11.350;2023-05-29T10:53:53;6.30;;;4.70;;
1024;SDS011;501;48.214;11.350;2023-05-29T10:56:23;6.30;;;4.40;;
1024;SDS011;501;48.214;11.350;2023-05-29T10:58:54;6.07;;;4.60;;
1024;SDS011;501;48.214;11.350;2023-05-29T11:01:22;8.00;;;4.47;;
1024;SDS011;501;48.214;11.350;2023-05-29T11:03:50;8.17;;;4.30;;
1024;SDS011;501;48.214;11.350;2023-05-29T11:06:18;5.13;;;4.47;;
1024;SDS011;501;48.214;11.350;2023-05-29T11:08:55;5.13;;;3.70;;
1024;SDS011;501;48.214;11.350;2023-05-29T11:13:54;4.80;;;3.93;;
1024;SDS011;501;48.214;11.350;2023-05-29T11:18:56;6.77;;;4.40;;
1024;SDS011;501;48.214;11.350;2023-05-29T11:24:21;6.33;;;4.60;;
1024;SDS011;501;48.214;11.350;2023-05-29T11:26:49;4.97;;;4.30;;
1024;SDS011;501;48.214;11.350;2023-05-29T11:29:23;4.63;;;4.10;;
1024;SDS011;501;48.214;11.350;2023-05-29T11:32:05;4.80;;;4.30;;
1024;SDS011;501;48.214;11.350;2023-05-29T11:34:39;7.53;;;4.27;;
1024;SDS011;501;48.214;11.350;2023-05-29T11:37:06;4.03;;;3.63;;
1024;SDS011;501;48.214;11.350;2023-05-29T11:39:35;4.80;;;4.00;;
1024;SDS011;501;48.214;11.350;2023-05-29T11:42:03;6.00;;;4.30;;
1024;SDS011;501;48.214;11.350;2023-05-29T11:44:30;5.50;;;3.87;;
1024;SDS011;501;48.214;11.350;2023-05-29T11:47:02;6.13;;;4.30;;
1024;SDS011;501;48.214;11.350;2023-05-29T11:49:30;5.50;;;3.83;;
1024;SDS011;501;48.214;11.350;2023-05-29T11:52:19;6.93;;;4.20;;
1024;SDS011;501;48.214;11.350;2023-05-29T11:54:47;4.53;;;3.60;;
1024;SDS011;501;48.214;11.350;2023-05-29T11:57:18;6.17;;;4.23;;
1024;SDS011;501;48.214;11.350;2023-05-29T11:59:44;6.60;;;4.47;;
1024;SDS011;501;48.214;11.350;2023-05-29T12:02:10;5.80;;;4.00;;
1024;SDS011;501;48.214;11.350;2023-05-29T12:04:36;4.60;;;4.03;;
1024;SDS011;501;48.214;11.350;2023-05-29T12:07:15;6.77;;;4.33;;
1024;SDS011;501;48.214;11.350;2023-05-29T12:09:44;5.50;;;3.63;;
1024;SDS011;501;48.214;11.350;2023-05-29T12:12:10;5.83;;;3.80;;
1024;SDS011;501;48.214;11.350;2023-05-29T12:14:36;5.20;;;3.53;;
1024;SDS011;501;48.214;11.350;2023-05-29T12:17:01;5.83;;;3.97;;
1024;SDS011;501;48.214;11.350;2023-05-29T12:19:27;5.10;;;3.40;;
1024;SDS011;501;48.214;11.350;2023-05-29T12:21:53;15.43;;;4.47;;
1024;SDS011;501;48.214;11.350;2023-05-29T12:24:19;5.03;;;4.07;;
1024;SDS011;501;48.214;11.350;2023-05-29T12:26:45;7.40;;;3.90;;
1024;SDS011;501;48.214;11.350;2023-05-29T12:29:14;6.93;;;4.50;;
1024;SDS011;501;48.214;11.350;2023-05-29T12:31:40;7.03;;;4.67;;
1024;SDS011;501;48.214;11.350;2023-05-29T12:34:10;5.97;;;4.83;;
1024;SDS011;501;48.214;11.350;2023-05-29T12:36:43;4.93;;;4.43;;
1024;SDS011;501;48.214;11.350;2023-05-29T12:39:09;5.90;;;4.23;;
1024;SDS011;501;48.214;11.350;2023-05-29T12:41:35;5.53;;;4.97;;
1024;SDS011;501;48.214;11.350;2023-05-29T12:44:02;5.70;;;4.10;;
1024;SDS011;501;48.214;11.350;2023-05-29T12:46:37;5.47;;;4.57;;
1024;SDS011;501;48.214;11.350;2023-05-29T12:49:13;4.00;;;3.60;;
1024;SDS011;501;48.214;11.350;2023-05-29T12:51:48;8.53;;;4.47;;
1024;SDS011;501;48.214;11.350;2023-05-29T12:54:14;4.20;;;3.80;;
1024;SDS011;501;48.214;11.350;2023-05-29T12:56:41;6.07;;;4.00;;
1024;SDS011;501;48.214;11.350;2023-05-29T12:59:07;5.50;;;4.47;;
1024;SDS011;501;48.214;11.350;2023-05-29T13:01:34;5.03;;;4.33;;
1024;SDS011;501;48.214;11.350;2023-05-29T13:04:04;5.40;;;4.40;;
1024;SDS011;501;48.214;11.350;2023-05-29T13:06:34;4.90;;;4.17;;
1024;SDS011;501;48.214;11.350;2023-05-29T13:09:00;5.60;;;4.00;;
1024;SDS011;501;48.214;11.350;2023-05-29T13:11:26;9.70;;;4.40;;
1024;SDS011;501;48.214;11.350;2023-05-29T13:13:52;5.67;;;4.03;;
1024;SDS011;501;48.214;11.350;2023-05-29T13:16:17;7.00;;;4.20;;
1024;SDS011;501;48.214;11.350;2023-05-29T13:18:43;4.80;;;4.30;;
1024;SDS011;501;48.214;11.350;2023-05-29T13:21:09;6.43;;;4.40;;
1024;SDS011;501;48.214;11.350;2023-05-29T13:23:36;6.10;;;3.60;;
1024;SDS011;501;48.214;11.350;2023-05-29T13:26:03;6.10;;;4.00;;
1024;SDS011;501;48.214;11.350;2023-05-29T13:28:29;5.70;;;4.10;;
1024;SDS011;501;48.214;11.350;2023-05-29T13:30:54;6.20;;;4.07;;
1024;SDS011;501;48.214;11.350;2023-05-29T13:33:20;3.77;;;3.43;;
1024;SDS011;501;48.214;11.350;2023-05-29T13:35:46;4.53;;;3.63;;
1024;SDS011;501;48.214;11.350;2023-05-29T13:38:12;5.13;;;4.00;;
1024;SDS011;501;48.214;11.350;2023-05-29T13:40:37;5.20;;;4.20;;
1024;SDS011;501;48.214;11.350;2023-05-29T13:43:03;8.13;;;4.07;;
1024;SDS011;501;48.214;11.350;2023-05-29T13:45:29;5.27;;;3.83;;
1024;SDS011;501;48.214;11.350;2023-05-29T13:47:55;7.73;;;4.23;;
1024;SDS011;501;48.214;11.350;2023-05-29T13:50:21;4.00;;;3.50;;
1024;SDS011;501;48.214;11.350;2023-05-29T13:52:48;4.20;;;3.20;;
1024;SDS011;501;48.214;11.350;2023-05-29T13:55:15;4.63;;;3.97;;
1024;SDS011;501;48.214;11.350;2023-05-29T13:57:41;4.63;;;3.87;;
1024;SDS011;501;48.214;11.350;2023-05-29T14:00:08;4.03;;;3.63;;
1024;SDS011;501;48.214;11.350;2023-05-29T14:02:35;3.93;;;3.53;;
1024;SDS011;501;48.214;11.350;2023-05-29T14:05:03;5.00;;;3.60;;
1024;SDS011;501;48.214;11.350;2023-05-29T14:07:31;5.07;;;4.03;;
1024;SDS011;501;48.214;11.350;2023-05-29T14:09:56;4.33;;;3.93;;
1024;SDS011;501;48.214;11.350;2023-05-29T14:12:22;3.77;;;3.40;;
1024;SDS011;501;48.214;11.350;2023-05-29T14:14:48;5.67;;;3.20;;
1024;SDS011;501;48.214;11.350;2023-05-29T14:17:14;5.57;;;3.50;;
1024;SDS011;501;48.214;11.350;2023-05-29T14:19:42;6.43;;;3.80;;
1024;SDS011;501;48.214;11.350;2023-05-29T14:22:10;4.47;;;3.47;;
1024;SDS011;501;48.214;11.350;2023-05-29T14:24:37;4.87;;;4.03;;
1024;SDS011;501;48.214;11.350;2023-05-29T14:27:02;4.67;;;3.30;;
1024;SDS011;501;48.214;11.350;2023-05-29T14:29:28;4.37;;;3.50;;
1024;SDS011;501;48.214;11.350;2023-05-29T14:31:54;5.03;;;3.50;;
1024;SDS011;501;48.214;11.350;2023-05-29T14:34:20;5.27;;;3.90;;
1024;SDS011;501;48.214;11.350;2023-05-29T14:36:46;3.90;;;3.53;;
1024;SDS011;501;48.214;11.350;2023-05-29T14:39:12;4.20;;;3.67;;
1024;SDS011;501;48.214;11.350;2023-05-29T14:41:38;4.10;;;3.20;;
1024;SDS011;501;48.214;11.350;2023-05-29T14:44:04;4.10;;;3.10;;
1024;SDS011;501;48.214;11.350;2023-05-29T14:46:29;3.73;;;3.40;;
1024;SDS011;501;48.214;11.350;2023-05-29T14:49:00;4.83;;;3.80;;
1024;SDS011;501;48.214;11.350;2023-05-29T14:51:26;3.47;;;3.17;;
1024;SDS011;501;48.214;11.350;2023-05-29T14:53:52;4.60;;;3.77;;
1024;SDS011;501;48.214;11.350;2023-05-29T14:56:18;5.17;;;3.80;;
1024;SDS011;501;48.214;11.350;2023-05-29T14:58:45;4.50;;;3.00;;
1024;SDS011;501;48.214;11.350;2023-05-29T15:01:12;3.43;;;3.10;;
1024;SDS011;501;48.214;11.350;2023-05-29T15:03:39;5.50;;;3.40;;
1024;SDS011;501;48.214;11.350;2023-05-29T15:06:05;5.73;;;3.40;;
1024;SDS011;501;48.214;11.350;2023-05-29T15:08:31;5.23;;;3.77;;
1024;SDS011;501;48.214;11.350;2023-05-29T15:11:00;5.83;;;3.40;;
1024;SDS011;501;48.214;11.350;2023-05-29T15:13:28;4.73;;;3.70;;
1024;SDS011;501;48.214;11.350;2023-05-29T15:15:54;3.83;;;3.17;;
1024;SDS011;501;48.214;11.350;2023-05-29T15:18:19;4.50;;;3.47;;
1024;SDS011;501;48.214;11.350;2023-05-29T15:20:45;3.20;;;2.90;;
1024;SDS011;501;48.214;11.350;2023-05-29T15:23:10;4.00;;;3.10;;
1024;SDS011;501;48.214;11.350;2023-05-29T15:25:36;3.03;;;2.67;;
1024;SDS011;501;48.214;11.350;2023-05-29T15:28:02;5.50;;;3.93;;
1024;SDS011;501;48.214;11.350;2023-05-29T15:30:28;4.50;;;3.60;;
1024;SDS011;501;48.214;11.350;2023-05-29T15:32:54;3.40;;;3.10;;